Lewistown Municipal Airport Lewistown US
ICAO: KLWT
IATA: LWT
Category: Medium
Scheduled Services: Yes

Elevation: 4170 ft
TransAlt. 18000 ft.

Airport Communications:
ASOS:118.375
GREAT FALLS RDO:122.35
CTAF/UNICOM:123

KLWT Zoom In..

If you have problems with the map follow the link
https://www.worldairports.se/pages/airport.php?
ICAO=KLWT

Runways:

(A) RW 03 length 5600 ft width 101 ft
---- / hdg 23

(B) RW 08 length 6100 ft width 100 ft
---- / hdg 75

(C) RW 13 length 4102 ft width 62 ft
---- / hdg 125

(D) RW 21 length 5600 ft width 101 ft
---- / hdg 203

(E) RW 26 length 6100 ft width 100 ft
---- / hdg 255

(F) RW 31 length 4102 ft width 62 ft
---- / hdg 305

Location; KLWT
Day. 19 / Time. 00.54 Zulu
* Altimeter: 30.05
* Temperature: 08° c. 46.4°f.
* Wind from: 250° Speed 05 kn.
Dewpoint: -04° c.
Visibility: 10 Statute Miles.
Clouds: Clear (automated report).

KLWT 190054Z AUTO 25005KT 10SM CLR 08/M04 A3005 RMK AO2 SLP191 T00781039


Wind From 250°
Speed 05 kn.

 
 
jpsmedia.com for Web Design worldairports.se 2018   terms of use